• Join FlightAware (Why Join?)
  • Login
  • US Flag 
12:02PM EDT


 

Airport Tracker/Info


-or-


 

Live Flight TrackerFlight Track Log ✈ EMD21 ✈ 16-Jul-2013 ✈ KHOU - KRVS

Flight Track Log - Related Links

Times and Time Zones

All times are in EDT time to prevent confusion due to time zone crossing. See the EMD21 flight status page for this flight to view local times or setup timezone preferences in your user account.

Time Position Orientation Groundspeed Altitude Reporting Facility
EDT Latitude Longitude Course Direction KTS MPH feet Rate Location/Type
08:01AM 29.6331 -95.2631 58° Northeast 141 162 400  Level Houston Center
08:02AM 29.6456 -95.2397 58° Northeast 149 171 1,300 1,080 Climbing Houston Center
08:03AM 29.6783 -95.2475 348° North 161 185 2,200 1,080 Climbing Houston Center
08:04AM 29.7228 -95.2553 351° North 160 184 3,400 1,320 Climbing Houston Center
08:05AM 29.7758 -95.2761 341° North 169 194 5,000 1,320 Climbing Houston Center
08:06AM 29.8214 -95.2936 342° North 171 197 6,200 1,200 Climbing Houston Center
08:07AM 29.8664 -95.3100 342° North 169 194 7,500 960 Climbing Houston Center
08:08AM 29.9169 -95.3300 341° North 187 215 8,200 840 Climbing Houston Center
08:09AM 29.9686 -95.3511 341° North 196 226 9,300 840 Climbing Houston Center
08:10AM 30.0192 -95.3794 334° Northwest 201 231 10,000 300 Climbing Houston Center
08:11AM 30.0836 -95.4133 336° Northwest 232 267 10,000  Level Houston Center
08:12AM 30.1339 -95.4442 332° Northwest 234 269 10,000  Level Houston Center
08:13AM 30.1950 -95.4700 340° North 235 270 10,000  Level Houston Center
08:14AM 30.2658 -95.5122 333° Northwest 237 273 10,000  Level Houston Center
08:15AM 30.3256 -95.5406 338° Northwest 233 268 10,000 300 Level Houston Center
08:16AM 30.3825 -95.5711 335° Northwest 224 258 10,700 840 Climbing Houston Center
08:17AM 30.4344 -95.5992 335° Northwest 208 239 11,800 1,020 Climbing Houston Center
08:18AM 30.4831 -95.6228 337° Northwest 193 222 12,800 900 Climbing Houston Center
08:19AM 30.5372 -95.6236 359° North 193 222 13,700 900 Climbing Houston Center
08:20AM 30.5908 -95.6239 360° North 193 222 14,700 840 Climbing Houston Center
08:21AM 30.6431 -95.6339 351° North 190 219 15,500 660 Climbing Houston Center
08:22AM 30.7039 -95.6339 360° North 192 221 16,100 240 Climbing Houston Center
08:23AM 30.7647 -95.6325 North 212 244 16,000  Descending Houston Center
08:24AM 30.8308 -95.6394 355° North 232 267 16,100  Climbing Houston Center
08:25AM 30.8969 -95.6422 358° North 234 269 16,000  Descending Houston Center
08:26AM 30.9622 -95.6417 360° North 234 269 16,100  Climbing Houston Center
08:27AM 31.0414 -95.6494 355° North 234 269 16,100 -60 Level Houston Center
08:28AM 31.1069 -95.6497 360° North 235 270 16,000  Descending Houston Center
08:29AM 31.1719 -95.6511 359° North 233 268 16,100  Climbing Houston Center
08:30AM 31.2383 -95.6572 355° North 237 273 16,100 -60 Level Houston Center
08:31AM 31.3031 -95.6572 360° North 233 268 16,000 -60 Descending Houston Center
08:32AM 31.3697 -95.6592 359° North 237 273 16,000  Level Houston Center
08:34AM 31.4353 -95.6661 355° North 236 272 16,100  Climbing Houston Center
08:35AM 31.5019 -95.6656 360° North 237 273 16,100  Level Houston Center
08:36AM 31.5675 -95.6678 358° North 236 272 16,100  Level Houston Center
08:36AM 31.6314 -95.6761 354° North 243 280 16,100  Level Fort Worth Center
08:37AM 31.6878 -95.6800 357° North 231 266 16,100 -60 Level Fort Worth Center
08:38AM 31.7547 -95.6811 359° North 231 266 16,000 -60 Descending Fort Worth Center
08:39AM 31.8194 -95.6872 355° North 231 266 16,000  Level Fort Worth Center
08:40AM 31.8864 -95.6861 North 237 273 16,100  Climbing Fort Worth Center
08:41AM 31.9614 -95.6869 359° North 237 273 16,100 -60 Level Fort Worth Center
08:42AM 32.0283 -95.6931 356° North 236 272 16,000  Descending Fort Worth Center
08:43AM 32.0911 -95.6969 357° North 236 272 16,100  Climbing Fort Worth Center
08:44AM 32.1600 -95.6956 North 236 272 16,000 -60 Descending Fort Worth Center
08:45AM 32.2228 -95.7042 353° North 236 272 16,000  Level Fort Worth Center
08:46AM 32.2894 -95.7056 359° North 236 272 16,000  Level Fort Worth Center
08:47AM 32.3564 -95.7067 359° North 236 272 16,100  Climbing Fort Worth Center
08:48AM 32.4253 -95.7128 356° North 236 272 16,000 -60 Descending Fort Worth Center
08:49AM 32.4878 -95.7117 North 236 272 16,000  Level Fort Worth Center
08:50AM 32.5547 -95.7153 357° North 236 272 16,100  Climbing Fort Worth Center
08:51AM 32.6153 -95.7189 357° North 236 272 16,000  Descending Fort Worth Center
08:52AM 32.6864 -95.7200 359° North 236 272 16,100  Climbing Fort Worth Center
08:53AM 32.7469 -95.7239 357° North 236 272 16,000 -60 Descending Fort Worth Center
08:54AM 32.8242 -95.7300 356° North 236 272 16,000  Level Fort Worth Center
08:55AM 32.8806 -95.7289 North 236 272 16,100  Climbing Fort Worth Center
08:56AM 32.9578 -95.7322 358° North 236 272 16,100 -60 Level Fort Worth Center
08:57AM 33.0183 -95.7361 357° North 236 272 16,000  Descending Fort Worth Center
08:58AM 33.0936 -95.7372 359° North 236 272 16,100  Climbing Fort Worth Center
08:59AM 33.1542 -95.7436 355° North 236 272 16,100 -60 Level Fort Worth Center
09:00AM 33.2272 -95.7472 358° North 236 272 16,000 -60 Descending Fort Worth Center
09:01AM 33.2900 -95.7458 North 236 272 16,000  Level Fort Worth Center
09:02AM 33.3611 -95.7544 354° North 236 272 16,100  Climbing Fort Worth Center
09:03AM 33.4236 -95.7558 359° North 236 272 16,100  Level Fort Worth Center
09:04AM 33.4989 -95.7644 355° North 236 272 16,100  Level Fort Worth Center
09:05AM 33.5617 -95.7683 357° North 241 277 16,200  Climbing Fort Worth Center
09:06AM 33.6264 -95.7719 357° North 241 277 16,200 -60 Level Fort Worth Center
09:07AM 33.6953 -95.7808 354° North 236 272 16,100 -60 Descending Fort Worth Center
09:08AM 33.7622 -95.7844 357° North 236 272 16,100  Level Fort Worth Center
09:09AM 33.8289 -95.7908 355° North 236 272 16,200  Climbing Fort Worth Center
09:10AM 33.8981 -95.7969 356° North 236 272 16,200  Level Fort Worth Center
09:11AM 33.9628 -95.8033 355° North 236 272 16,200 -60 Level Fort Worth Center
09:12AM 34.0317 -95.8044 359° North 236 272 16,100 -60 Descending Fort Worth Center
09:13AM 34.1028 -95.8208 349° North 236 272 16,100  Level Fort Worth Center
09:14AM 34.1739 -95.8244 358° North 236 272 16,200  Climbing Fort Worth Center
09:15AM 34.2428 -95.8308 356° North 241 277 16,200  Level Fort Worth Center
09:16AM 34.3117 -95.8369 356° North 241 277 16,200  Level Fort Worth Center
09:17AM 34.3806 -95.8383 359° North 241 277 16,200  Level Fort Worth Center
09:18AM 34.4536 -95.8444 356° North 241 277 16,200 -60 Level Fort Worth Center
09:19AM 34.5183 -95.8533 354° North 246 283 16,100 -60 Descending Fort Worth Center
09:20AM 34.5872 -95.8597 356° North 246 283 16,100  Level Fort Worth Center
09:21AM 34.6542 -95.8636 357° North 246 283 16,200  Climbing Fort Worth Center
09:22AM 34.7253 -95.8725 354° North 246 283 16,200 -60 Level Fort Worth Center
09:23AM 34.7919 -95.8761 357° North 246 283 16,100  Descending Fort Worth Center
09:24AM 34.8631 -95.8800 357° North 246 283 16,200  Climbing Fort Worth Center
09:25AM 34.9339 -95.8889 354° North 246 283 16,200 -60 Level Fort Worth Center
09:26AM 35.0008 -95.8928 357° North 246 283 16,100 -420 Descending Fort Worth Center
09:27AM 35.0739 -95.9017 354° North 251 289 15,400 -660 Descending Fort Worth Center
09:28AM 35.1489 -95.9053 358° North 262 302 14,800 -900 Descending Fort Worth Center
09:29AM 35.2283 -95.9167 353° North 267 307 13,600 -960 Descending Fort Worth Center
09:30AM 35.3014 -95.9203 358° North 274 315 12,900 -1,020 Descending Fort Worth Center
09:32AM 35.3722 -95.9348 357° North  Level FlightAware Approximate
09:33AM 35.5167 -95.9369 355° North 262 302 9,600  Level Kansas City Center
09:34AM 35.5844 -95.9567 347° North 259 298 8,900 -720 Descending Kansas City Center
09:35AM 35.6472 -95.9806 343° North 256 295 8,300 -660 Descending Kansas City Center
09:37AM 35.7236 -96.0011 348° North 258 297 7,600 -780 Descending Kansas City Center
09:37AM 35.7853 -96.0247 343° North 256 295 6,800 -1,080 Descending Kansas City Center
09:38AM 35.8581 -96.0436 348° North 250 288 5,700 -1,260 Descending Kansas City Center
09:39AM 35.8018 -95.9737 355° North  Level FlightAware Approximate
09:39AM 35.9314 -96.0653 347° North 250 288 4,200  Level Kansas City Center
09:41AM 35.9819 -96.1183 320° Northwest 194 223 4,000 -120 Descending Kansas City Center
09:42AM 36.0006 -96.1797 291° West 200 230 4,000  Level Kansas City Center